sensor_id;sensor_type;location;lat;lon;timestamp;P1;durP1;ratioP1;P2;durP2;ratioP2
16393;SDS011;8306;51.128;4.476;2022-11-18T00:01:06;3.90;;;2.03;;
16393;SDS011;8306;51.128;4.476;2022-11-18T00:03:34;2.70;;;1.80;;
16393;SDS011;8306;51.128;4.476;2022-11-18T00:06:01;3.00;;;1.70;;
16393;SDS011;8306;51.128;4.476;2022-11-18T00:08:27;4.33;;;1.97;;
16393;SDS011;8306;51.128;4.476;2022-11-18T00:10:53;5.30;;;4.37;;
16393;SDS011;8306;51.128;4.476;2022-11-18T00:13:20;7.53;;;6.27;;
16393;SDS011;8306;51.128;4.476;2022-11-18T00:16:06;5.20;;;4.60;;
16393;SDS011;8306;51.128;4.476;2022-11-18T00:18:31;5.07;;;3.80;;
16393;SDS011;8306;51.128;4.476;2022-11-18T00:21:04;2.77;;;2.10;;
16393;SDS011;8306;51.128;4.476;2022-11-18T00:23:33;4.47;;;3.70;;
16393;SDS011;8306;51.128;4.476;2022-11-18T00:26:07;4.03;;;3.50;;
16393;SDS011;8306;51.128;4.476;2022-11-18T00:28:32;2.53;;;1.63;;
16393;SDS011;8306;51.128;4.476;2022-11-18T00:31:02;2.17;;;1.40;;
16393;SDS011;8306;51.128;4.476;2022-11-18T00:33:31;3.23;;;2.73;;
16393;SDS011;8306;51.128;4.476;2022-11-18T00:35:57;3.83;;;2.50;;
16393;SDS011;8306;51.128;4.476;2022-11-18T00:38:24;2.80;;;1.70;;
16393;SDS011;8306;51.128;4.476;2022-11-18T00:41:06;2.53;;;1.10;;
16393;SDS011;8306;51.128;4.476;2022-11-18T00:43:28;2.50;;;1.70;;
16393;SDS011;8306;51.128;4.476;2022-11-18T00:45:55;2.10;;;1.40;;
16393;SDS011;8306;51.128;4.476;2022-11-18T00:48:21;3.43;;;1.70;;
16393;SDS011;8306;51.128;4.476;2022-11-18T00:50:49;3.13;;;1.53;;
16393;SDS011;8306;51.128;4.476;2022-11-18T00:53:15;3.00;;;2.70;;
16393;SDS011;8306;51.128;4.476;2022-11-18T00:55:41;1.93;;;1.23;;
16393;SDS011;8306;51.128;4.476;2022-11-18T00:58:08;1.43;;;1.10;;
16393;SDS011;8306;51.128;4.476;2022-11-18T01:00:34;4.23;;;1.77;;
16393;SDS011;8306;51.128;4.476;2022-11-18T01:03:01;1.80;;;1.40;;
16393;SDS011;8306;51.128;4.476;2022-11-18T01:05:27;2.67;;;1.53;;
16393;SDS011;8306;51.128;4.476;2022-11-18T01:07:54;3.70;;;1.40;;
16393;SDS011;8306;51.128;4.476;2022-11-18T01:10:20;2.47;;;1.27;;
16393;SDS011;8306;51.128;4.476;2022-11-18T01:12:46;2.80;;;1.47;;
16393;SDS011;8306;51.128;4.476;2022-11-18T01:15:36;3.63;;;1.40;;
16393;SDS011;8306;51.128;4.476;2022-11-18T01:17:58;2.33;;;1.40;;
16393;SDS011;8306;51.128;4.476;2022-11-18T01:20:24;4.20;;;1.70;;
16393;SDS011;8306;51.128;4.476;2022-11-18T01:22:51;2.10;;;1.37;;
16393;SDS011;8306;51.128;4.476;2022-11-18T01:25:17;1.97;;;1.20;;
16393;SDS011;8306;51.128;4.476;2022-11-18T01:27:44;1.27;;;1.17;;
16393;SDS011;8306;51.128;4.476;2022-11-18T01:30:10;1.20;;;1.10;;
16393;SDS011;8306;51.128;4.476;2022-11-18T01:32:37;1.53;;;1.40;;
16393;SDS011;8306;51.128;4.476;2022-11-18T01:35:03;2.17;;;1.10;;
16393;SDS011;8306;51.128;4.476;2022-11-18T01:37:30;3.13;;;1.57;;
16393;SDS011;8306;51.128;4.476;2022-11-18T01:39:56;2.23;;;1.63;;
16393;SDS011;8306;51.128;4.476;2022-11-18T01:42:23;1.87;;;1.27;;
16393;SDS011;8306;51.128;4.476;2022-11-18T01:44:57;1.00;;;0.80;;
16393;SDS011;8306;51.128;4.476;2022-11-18T01:47:29;1.60;;;1.20;;
16393;SDS011;8306;51.128;4.476;2022-11-18T01:49:54;1.70;;;1.10;;
16393;SDS011;8306;51.128;4.476;2022-11-18T01:52:21;1.60;;;0.93;;
16393;SDS011;8306;51.128;4.476;2022-11-18T01:54:48;1.73;;;1.10;;
16393;SDS011;8306;51.128;4.476;2022-11-18T01:57:15;2.80;;;1.40;;
16393;SDS011;8306;51.128;4.476;2022-11-18T01:59:40;3.23;;;1.43;;
16393;SDS011;8306;51.128;4.476;2022-11-18T02:02:10;2.47;;;1.30;;
16393;SDS011;8306;51.128;4.476;2022-11-18T02:04:33;2.40;;;1.30;;
16393;SDS011;8306;51.128;4.476;2022-11-18T02:06:59;2.60;;;1.20;;
16393;SDS011;8306;51.128;4.476;2022-11-18T02:09:26;2.07;;;1.40;;
16393;SDS011;8306;51.128;4.476;2022-11-18T02:11:52;3.43;;;1.40;;
16393;SDS011;8306;51.128;4.476;2022-11-18T02:14:20;2.50;;;1.53;;
16393;SDS011;8306;51.128;4.476;2022-11-18T02:19:38;1.30;;;1.00;;
16393;SDS011;8306;51.128;4.476;2022-11-18T02:24:39;2.10;;;1.30;;
16393;SDS011;8306;51.128;4.476;2022-11-18T02:27:30;2.03;;;1.30;;
16393;SDS011;8306;51.128;4.476;2022-11-18T02:30:10;1.83;;;1.20;;
16393;SDS011;8306;51.128;4.476;2022-11-18T02:32:39;2.90;;;1.33;;
16393;SDS011;8306;51.128;4.476;2022-11-18T02:35:23;2.87;;;1.60;;
16393;SDS011;8306;51.128;4.476;2022-11-18T02:37:53;1.97;;;1.07;;
16393;SDS011;8306;51.128;4.476;2022-11-18T02:40:29;2.07;;;1.20;;
16393;SDS011;8306;51.128;4.476;2022-11-18T02:42:58;1.43;;;1.10;;
16393;SDS011;8306;51.128;4.476;2022-11-18T02:45:27;3.57;;;1.50;;
16393;SDS011;8306;51.128;4.476;2022-11-18T02:47:53;2.17;;;1.70;;
16393;SDS011;8306;51.128;4.476;2022-11-18T02:50:21;1.77;;;1.10;;
16393;SDS011;8306;51.128;4.476;2022-11-18T02:52:46;1.80;;;1.27;;
16393;SDS011;8306;51.128;4.476;2022-11-18T02:55:13;3.10;;;1.57;;
16393;SDS011;8306;51.128;4.476;2022-11-18T02:57:39;3.20;;;1.30;;
16393;SDS011;8306;51.128;4.476;2022-11-18T03:00:06;3.90;;;2.00;;
16393;SDS011;8306;51.128;4.476;2022-11-18T03:02:42;3.87;;;2.63;;
16393;SDS011;8306;51.128;4.476;2022-11-18T03:05:22;3.67;;;2.00;;
16393;SDS011;8306;51.128;4.476;2022-11-18T03:07:50;2.80;;;1.80;;
16393;SDS011;8306;51.128;4.476;2022-11-18T03:10:15;2.50;;;1.30;;
16393;SDS011;8306;51.128;4.476;2022-11-18T03:12:42;2.47;;;1.37;;
16393;SDS011;8306;51.128;4.476;2022-11-18T03:20:37;2.27;;;1.30;;
16393;SDS011;8306;51.128;4.476;2022-11-18T03:23:05;2.60;;;1.43;;
16393;SDS011;8306;51.128;4.476;2022-11-18T03:28:17;1.77;;;1.40;;
16393;SDS011;8306;51.128;4.476;2022-11-18T03:30:47;3.23;;;1.50;;
16393;SDS011;8306;51.128;4.476;2022-11-18T03:33:13;1.67;;;1.57;;
16393;SDS011;8306;51.128;4.476;2022-11-18T03:35:39;3.27;;;1.50;;
16393;SDS011;8306;51.128;4.476;2022-11-18T03:38:08;3.37;;;1.50;;
16393;SDS011;8306;51.128;4.476;2022-11-18T03:40:34;4.20;;;1.60;;
16393;SDS011;8306;51.128;4.476;2022-11-18T03:43:10;2.17;;;1.20;;
16393;SDS011;8306;51.128;4.476;2022-11-18T03:45:39;3.23;;;1.70;;
16393;SDS011;8306;51.128;4.476;2022-11-18T03:48:10;2.50;;;1.60;;
16393;SDS011;8306;51.128;4.476;2022-11-18T03:50:36;3.00;;;1.50;;
16393;SDS011;8306;51.128;4.476;2022-11-18T03:53:01;2.43;;;1.70;;
16393;SDS011;8306;51.128;4.476;2022-11-18T03:55:35;3.70;;;1.93;;
16393;SDS011;8306;51.128;4.476;2022-11-18T03:58:04;2.20;;;1.40;;
16393;SDS011;8306;51.128;4.476;2022-11-18T04:00:27;1.70;;;1.60;;
16393;SDS011;8306;51.128;4.476;2022-11-18T04:02:52;1.93;;;1.50;;
16393;SDS011;8306;51.128;4.476;2022-11-18T04:05:19;2.93;;;1.60;;
16393;SDS011;8306;51.128;4.476;2022-11-18T04:07:51;1.90;;;1.70;;
16393;SDS011;8306;51.128;4.476;2022-11-18T04:10:28;3.60;;;2.00;;
16393;SDS011;8306;51.128;4.476;2022-11-18T04:12:56;3.63;;;1.70;;
16393;SDS011;8306;51.128;4.476;2022-11-18T04:15:19;1.93;;;1.63;;
16393;SDS011;8306;51.128;4.476;2022-11-18T04:17:46;2.97;;;2.03;;
16393;SDS011;8306;51.128;4.476;2022-11-18T04:20:13;2.50;;;2.30;;
16393;SDS011;8306;51.128;4.476;2022-11-18T04:22:41;2.30;;;1.77;;
16393;SDS011;8306;51.128;4.476;2022-11-18T04:25:08;2.57;;;1.87;;
16393;SDS011;8306;51.128;4.476;2022-11-18T04:27:34;2.87;;;1.80;;
16393;SDS011;8306;51.128;4.476;2022-11-18T04:30:01;2.13;;;1.83;;
16393;SDS011;8306;51.128;4.476;2022-11-18T04:32:27;2.40;;;1.87;;
16393;SDS011;8306;51.128;4.476;2022-11-18T04:34:54;2.63;;;1.63;;
16393;SDS011;8306;51.128;4.476;2022-11-18T04:37:20;2.37;;;1.87;;
16393;SDS011;8306;51.128;4.476;2022-11-18T04:39:47;3.67;;;2.17;;
16393;SDS011;8306;51.128;4.476;2022-11-18T04:42:13;2.50;;;1.87;;
16393;SDS011;8306;51.128;4.476;2022-11-18T04:44:40;3.17;;;2.10;;
16393;SDS011;8306;51.128;4.476;2022-11-18T04:47:06;3.03;;;2.00;;
16393;SDS011;8306;51.128;4.476;2022-11-18T04:49:33;3.10;;;1.80;;
16393;SDS011;8306;51.128;4.476;2022-11-18T04:51:59;2.83;;;2.00;;
16393;SDS011;8306;51.128;4.476;2022-11-18T04:54:26;3.30;;;2.00;;
16393;SDS011;8306;51.128;4.476;2022-11-18T04:56:52;3.47;;;2.10;;
16393;SDS011;8306;51.128;4.476;2022-11-18T04:59:20;5.10;;;2.43;;
16393;SDS011;8306;51.128;4.476;2022-11-18T05:01:45;2.83;;;2.10;;
16393;SDS011;8306;51.128;4.476;2022-11-18T05:04:16;5.23;;;2.30;;
16393;SDS011;8306;51.128;4.476;2022-11-18T05:06:38;2.23;;;1.90;;
16393;SDS011;8306;51.128;4.476;2022-11-18T05:09:04;7.03;;;2.37;;
16393;SDS011;8306;51.128;4.476;2022-11-18T05:11:31;2.70;;;1.80;;
16393;SDS011;8306;51.128;4.476;2022-11-18T05:14:15;2.40;;;1.90;;
16393;SDS011;8306;51.128;4.476;2022-11-18T05:16:42;3.50;;;2.47;;
16393;SDS011;8306;51.128;4.476;2022-11-18T05:19:08;2.90;;;1.90;;
16393;SDS011;8306;51.128;4.476;2022-11-18T05:21:35;4.53;;;2.13;;
16393;SDS011;8306;51.128;4.476;2022-11-18T05:24:02;3.03;;;2.00;;
16393;SDS011;8306;51.128;4.476;2022-11-18T05:26:28;4.20;;;2.30;;
16393;SDS011;8306;51.128;4.476;2022-11-18T05:28:54;5.07;;;1.73;;
16393;SDS011;8306;51.128;4.476;2022-11-18T05:31:21;2.40;;;1.60;;
16393;SDS011;8306;51.128;4.476;2022-11-18T05:33:47;3.00;;;2.00;;
16393;SDS011;8306;51.128;4.476;2022-11-18T05:36:15;4.63;;;2.03;;
16393;SDS011;8306;51.128;4.476;2022-11-18T05:38:40;2.53;;;2.03;;
16393;SDS011;8306;51.128;4.476;2022-11-18T05:41:07;2.90;;;1.90;;
16393;SDS011;8306;51.128;4.476;2022-11-18T05:43:34;5.33;;;2.30;;
16393;SDS011;8306;51.128;4.476;2022-11-18T05:46:00;3.50;;;2.60;;
16393;SDS011;8306;51.128;4.476;2022-11-18T05:48:26;3.77;;;2.10;;
16393;SDS011;8306;51.128;4.476;2022-11-18T05:50:53;3.10;;;2.17;;
16393;SDS011;8306;51.128;4.476;2022-11-18T05:53:20;4.30;;;1.87;;
16393;SDS011;8306;51.128;4.476;2022-11-18T05:58:27;4.10;;;2.07;;
16393;SDS011;8306;51.128;4.476;2022-11-18T06:00:54;4.10;;;2.20;;
16393;SDS011;8306;51.128;4.476;2022-11-18T06:03:22;3.90;;;2.00;;
16393;SDS011;8306;51.128;4.476;2022-11-18T06:05:49;3.43;;;1.97;;
16393;SDS011;8306;51.128;4.476;2022-11-18T06:08:16;4.10;;;1.87;;
16393;SDS011;8306;51.128;4.476;2022-11-18T06:10:42;5.23;;;1.80;;
16393;SDS011;8306;51.128;4.476;2022-11-18T06:13:09;2.87;;;2.00;;
16393;SDS011;8306;51.128;4.476;2022-11-18T06:15:39;3.47;;;2.07;;
16393;SDS011;8306;51.128;4.476;2022-11-18T06:18:08;2.50;;;1.70;;
16393;SDS011;8306;51.128;4.476;2022-11-18T06:20:34;2.40;;;1.73;;
16393;SDS011;8306;51.128;4.476;2022-11-18T06:23:00;3.87;;;1.70;;
16393;SDS011;8306;51.128;4.476;2022-11-18T06:25:26;2.93;;;1.80;;
16393;SDS011;8306;51.128;4.476;2022-11-18T06:27:53;5.97;;;2.47;;
16393;SDS011;8306;51.128;4.476;2022-11-18T06:30:19;5.37;;;2.30;;
16393;SDS011;8306;51.128;4.476;2022-11-18T06:32:46;2.87;;;2.00;;
16393;SDS011;8306;51.128;4.476;2022-11-18T06:35:12;4.73;;;1.80;;
16393;SDS011;8306;51.128;4.476;2022-11-18T06:37:39;2.60;;;1.57;;
16393;SDS011;8306;51.128;4.476;2022-11-18T06:40:06;4.63;;;2.07;;
16393;SDS011;8306;51.128;4.476;2022-11-18T06:42:32;3.10;;;1.40;;
16393;SDS011;8306;51.128;4.476;2022-11-18T06:45:17;3.03;;;1.73;;
16393;SDS011;8306;51.128;4.476;2022-11-18T06:47:43;4.20;;;1.70;;
16393;SDS011;8306;51.128;4.476;2022-11-18T06:50:10;3.67;;;1.63;;
16393;SDS011;8306;51.128;4.476;2022-11-18T06:52:36;4.07;;;1.70;;
16393;SDS011;8306;51.128;4.476;2022-11-18T06:55:03;3.43;;;1.97;;
16393;SDS011;8306;51.128;4.476;2022-11-18T06:57:29;3.83;;;2.43;;
16393;SDS011;8306;51.128;4.476;2022-11-18T06:59:56;4.37;;;2.00;;
16393;SDS011;8306;51.128;4.476;2022-11-18T07:02:22;3.53;;;2.00;;
16393;SDS011;8306;51.128;4.476;2022-11-18T07:04:49;4.93;;;2.07;;
16393;SDS011;8306;51.128;4.476;2022-11-18T07:07:15;3.20;;;1.73;;
16393;SDS011;8306;51.128;4.476;2022-11-18T07:09:42;8.03;;;2.37;;
16393;SDS011;8306;51.128;4.476;2022-11-18T07:12:08;8.07;;;2.67;;
16393;SDS011;8306;51.128;4.476;2022-11-18T07:14:35;5.27;;;1.83;;
16393;SDS011;8306;51.128;4.476;2022-11-18T07:17:01;2.83;;;1.60;;
16393;SDS011;8306;51.128;4.476;2022-11-18T07:19:28;5.23;;;2.23;;
16393;SDS011;8306;51.128;4.476;2022-11-18T07:21:54;5.87;;;2.03;;
16393;SDS011;8306;51.128;4.476;2022-11-18T07:24:20;5.43;;;2.00;;
16393;SDS011;8306;51.128;4.476;2022-11-18T07:26:47;5.23;;;2.30;;
16393;SDS011;8306;51.128;4.476;2022-11-18T07:29:13;4.70;;;2.20;;
16393;SDS011;8306;51.128;4.476;2022-11-18T07:31:40;3.20;;;2.10;;
16393;SDS011;8306;51.128;4.476;2022-11-18T07:34:06;6.23;;;2.40;;
16393;SDS011;8306;51.128;4.476;2022-11-18T07:36:33;4.77;;;2.17;;
16393;SDS011;8306;51.128;4.476;2022-11-18T07:39:00;2.53;;;1.67;;
16393;SDS011;8306;51.128;4.476;2022-11-18T07:41:27;4.60;;;2.10;;
16393;SDS011;8306;51.128;4.476;2022-11-18T07:43:53;4.70;;;1.80;;
16393;SDS011;8306;51.128;4.476;2022-11-18T07:46:23;2.43;;;1.50;;
16393;SDS011;8306;51.128;4.476;2022-11-18T07:48:55;3.07;;;1.90;;
16393;SDS011;8306;51.128;4.476;2022-11-18T07:51:21;3.83;;;1.87;;
16393;SDS011;8306;51.128;4.476;2022-11-18T07:53:47;5.03;;;1.57;;
16393;SDS011;8306;51.128;4.476;2022-11-18T07:56:13;3.90;;;1.77;;
16393;SDS011;8306;51.128;4.476;2022-11-18T07:58:40;3.97;;;1.60;;
16393;SDS011;8306;51.128;4.476;2022-11-18T08:01:10;2.80;;;1.60;;
16393;SDS011;8306;51.128;4.476;2022-11-18T08:03:38;4.47;;;1.70;;
16393;SDS011;8306;51.128;4.476;2022-11-18T08:06:05;4.27;;;1.80;;
16393;SDS011;8306;51.128;4.476;2022-11-18T08:08:31;3.20;;;1.97;;
16393;SDS011;8306;51.128;4.476;2022-11-18T08:10:59;6.57;;;2.20;;
16393;SDS011;8306;51.128;4.476;2022-11-18T08:13:25;4.50;;;1.90;;
16393;SDS011;8306;51.128;4.476;2022-11-18T08:15:51;2.60;;;1.53;;
16393;SDS011;8306;51.128;4.476;2022-11-18T08:18:17;4.30;;;1.83;;
16393;SDS011;8306;51.128;4.476;2022-11-18T08:20:44;4.37;;;2.20;;
16393;SDS011;8306;51.128;4.476;2022-11-18T08:23:11;4.03;;;1.63;;
16393;SDS011;8306;51.128;4.476;2022-11-18T08:25:37;3.23;;;1.80;;
16393;SDS011;8306;51.128;4.476;2022-11-18T08:28:03;7.10;;;2.17;;
16393;SDS011;8306;51.128;4.476;2022-11-18T08:30:30;4.57;;;1.93;;
16393;SDS011;8306;51.128;4.476;2022-11-18T08:32:56;3.27;;;1.70;;
16393;SDS011;8306;51.128;4.476;2022-11-18T08:35:24;2.40;;;2.00;;
16393;SDS011;8306;51.128;4.476;2022-11-18T08:37:49;6.27;;;2.40;;
16393;SDS011;8306;51.128;4.476;2022-11-18T08:40:16;3.60;;;2.80;;
16393;SDS011;8306;51.128;4.476;2022-11-18T08:42:42;7.37;;;2.80;;
16393;SDS011;8306;51.128;4.476;2022-11-18T08:45:09;6.07;;;3.30;;
16393;SDS011;8306;51.128;4.476;2022-11-18T08:47:35;5.23;;;3.20;;
16393;SDS011;8306;51.128;4.476;2022-11-18T08:50:03;4.80;;;2.10;;
16393;SDS011;8306;51.128;4.476;2022-11-18T08:52:31;4.00;;;2.37;;
16393;SDS011;8306;51.128;4.476;2022-11-18T08:54:57;5.77;;;2.33;;
16393;SDS011;8306;51.128;4.476;2022-11-18T08:57:24;3.63;;;1.90;;
16393;SDS011;8306;51.128;4.476;2022-11-18T08:59:50;3.97;;;2.67;;
16393;SDS011;8306;51.128;4.476;2022-11-18T09:02:18;4.50;;;3.83;;
16393;SDS011;8306;51.128;4.476;2022-11-18T09:04:46;3.93;;;2.27;;
16393;SDS011;8306;51.128;4.476;2022-11-18T09:07:15;5.27;;;2.80;;
16393;SDS011;8306;51.128;4.476;2022-11-18T09:09:41;2.67;;;1.87;;
16393;SDS011;8306;51.128;4.476;2022-11-18T09:12:08;6.53;;;3.27;;
16393;SDS011;8306;51.128;4.476;2022-11-18T09:14:34;5.37;;;2.10;;
16393;SDS011;8306;51.128;4.476;2022-11-18T09:17:01;4.03;;;2.77;;
16393;SDS011;8306;51.128;4.476;2022-11-18T09:19:27;3.97;;;2.90;;
16393;SDS011;8306;51.128;4.476;2022-11-18T09:21:54;4.27;;;2.47;;
16393;SDS011;8306;51.128;4.476;2022-11-18T09:24:20;3.53;;;1.90;;
16393;SDS011;8306;51.128;4.476;2022-11-18T09:26:47;4.37;;;2.13;;
16393;SDS011;8306;51.128;4.476;2022-11-18T09:29:13;5.03;;;2.27;;
16393;SDS011;8306;51.128;4.476;2022-11-18T09:31:40;3.60;;;2.30;;
16393;SDS011;8306;51.128;4.476;2022-11-18T09:34:06;3.43;;;2.37;;
16393;SDS011;8306;51.128;4.476;2022-11-18T09:36:33;3.67;;;2.00;;
16393;SDS011;8306;51.128;4.476;2022-11-18T09:38:59;4.43;;;2.20;;
16393;SDS011;8306;51.128;4.476;2022-11-18T09:47:13;4.27;;;2.20;;
16393;SDS011;8306;51.128;4.476;2022-11-18T09:49:50;4.53;;;2.13;;
16393;SDS011;8306;51.128;4.476;2022-11-18T09:52:25;3.57;;;2.27;;
16393;SDS011;8306;51.128;4.476;2022-11-18T09:54:58;4.20;;;2.10;;
16393;SDS011;8306;51.128;4.476;2022-11-18T09:57:30;4.90;;;2.70;;
16393;SDS011;8306;51.128;4.476;2022-11-18T09:59:57;3.97;;;2.37;;
16393;SDS011;8306;51.128;4.476;2022-11-18T10:05:18;3.03;;;2.03;;
16393;SDS011;8306;51.128;4.476;2022-11-18T10:07:51;3.27;;;1.87;;
16393;SDS011;8306;51.128;4.476;2022-11-18T10:10:18;5.07;;;2.10;;
16393;SDS011;8306;51.128;4.476;2022-11-18T10:12:49;2.53;;;1.70;;
16393;SDS011;8306;51.128;4.476;2022-11-18T10:18:09;6.13;;;2.13;;
16393;SDS011;8306;51.128;4.476;2022-11-18T10:25:54;3.23;;;1.90;;
16393;SDS011;8306;51.128;4.476;2022-11-18T10:28:24;4.10;;;1.80;;
16393;SDS011;8306;51.128;4.476;2022-11-18T10:30:50;3.07;;;1.90;;
16393;SDS011;8306;51.128;4.476;2022-11-18T10:35:48;4.00;;;1.33;;
16393;SDS011;8306;51.128;4.476;2022-11-18T10:38:18;3.33;;;1.80;;
16393;SDS011;8306;51.128;4.476;2022-11-18T10:40:46;3.10;;;1.60;;
16393;SDS011;8306;51.128;4.476;2022-11-18T10:43:11;3.57;;;1.50;;
16393;SDS011;8306;51.128;4.476;2022-11-18T10:45:37;3.17;;;1.60;;
16393;SDS011;8306;51.128;4.476;2022-11-18T10:48:16;3.00;;;1.80;;
16393;SDS011;8306;51.128;4.476;2022-11-18T10:50:45;3.03;;;1.47;;
16393;SDS011;8306;51.128;4.476;2022-11-18T10:55:57;2.70;;;1.77;;
16393;SDS011;8306;51.128;4.476;2022-11-18T10:58:23;3.77;;;1.80;;
16393;SDS011;8306;51.128;4.476;2022-11-18T11:00:49;5.20;;;1.60;;
16393;SDS011;8306;51.128;4.476;2022-11-18T11:06:13;3.60;;;2.07;;
16393;SDS011;8306;51.128;4.476;2022-11-18T11:09:00;2.43;;;1.77;;
16393;SDS011;8306;51.128;4.476;2022-11-18T11:11:42;2.57;;;1.30;;
16393;SDS011;8306;51.128;4.476;2022-11-18T11:16:44;3.97;;;1.70;;
16393;SDS011;8306;51.128;4.476;2022-11-18T11:19:09;4.40;;;1.77;;
16393;SDS011;8306;51.128;4.476;2022-11-18T11:21:35;2.23;;;1.50;;
16393;SDS011;8306;51.128;4.476;2022-11-18T11:24:02;5.47;;;1.70;;
16393;SDS011;8306;51.128;4.476;2022-11-18T11:32:14;2.70;;;1.53;;
16393;SDS011;8306;51.128;4.476;2022-11-18T11:51:46;3.57;;;1.80;;
16393;SDS011;8306;51.128;4.476;2022-11-18T11:56:58;3.70;;;1.77;;
16393;SDS011;8306;51.128;4.476;2022-11-18T11:59:39;5.70;;;2.60;;
16393;SDS011;8306;51.128;4.476;2022-11-18T12:02:19;7.00;;;2.70;;
16393;SDS011;8306;51.128;4.476;2022-11-18T12:07:22;4.40;;;2.63;;
16393;SDS011;8306;51.128;4.476;2022-11-18T12:09:55;3.77;;;2.63;;
16393;SDS011;8306;51.128;4.476;2022-11-18T12:12:31;4.57;;;3.00;;
16393;SDS011;8306;51.128;4.476;2022-11-18T12:18:07;4.37;;;2.60;;
16393;SDS011;8306;51.128;4.476;2022-11-18T12:20:37;3.27;;;2.13;;
16393;SDS011;8306;51.128;4.476;2022-11-18T12:23:14;3.17;;;2.30;;
16393;SDS011;8306;51.128;4.476;2022-11-18T12:28:21;2.77;;;1.93;;
16393;SDS011;8306;51.128;4.476;2022-11-18T12:30:54;3.03;;;1.90;;
16393;SDS011;8306;51.128;4.476;2022-11-18T12:33:16;4.43;;;2.57;;
16393;SDS011;8306;51.128;4.476;2022-11-18T12:35:46;5.27;;;2.40;;
16393;SDS011;8306;51.128;4.476;2022-11-18T12:38:28;5.57;;;2.60;;
16393;SDS011;8306;51.128;4.476;2022-11-18T12:40:53;16.63;;;14.30;;
16393;SDS011;8306;51.128;4.476;2022-11-18T12:48:52;7.23;;;6.50;;
16393;SDS011;8306;51.128;4.476;2022-11-18T12:53:48;3.67;;;3.07;;
16393;SDS011;8306;51.128;4.476;2022-11-18T12:58:44;5.20;;;3.17;;
16393;SDS011;8306;51.128;4.476;2022-11-18T13:01:17;6.17;;;2.27;;
16393;SDS011;8306;51.128;4.476;2022-11-18T13:03:42;6.77;;;4.20;;
16393;SDS011;8306;51.128;4.476;2022-11-18T13:06:18;5.57;;;2.43;;
16393;SDS011;8306;51.128;4.476;2022-11-18T13:08:43;5.43;;;2.90;;
16393;SDS011;8306;51.128;4.476;2022-11-18T13:11:18;4.23;;;3.00;;
16393;SDS011;8306;51.128;4.476;2022-11-18T13:14:00;3.90;;;2.70;;
16393;SDS011;8306;51.128;4.476;2022-11-18T13:16:44;4.20;;;3.07;;
16393;SDS011;8306;51.128;4.476;2022-11-18T13:19:29;2.43;;;2.20;;
16393;SDS011;8306;51.128;4.476;2022-11-18T13:21:56;5.23;;;2.70;;
16393;SDS011;8306;51.128;4.476;2022-11-18T13:24:44;3.50;;;3.17;;
16393;SDS011;8306;51.128;4.476;2022-11-18T13:27:12;4.13;;;3.63;;
16393;SDS011;8306;51.128;4.476;2022-11-18T13:34:54;5.27;;;4.70;;
16393;SDS011;8306;51.128;4.476;2022-11-18T13:37:20;6.70;;;5.93;;
16393;SDS011;8306;51.128;4.476;2022-11-18T13:39:48;4.80;;;4.00;;
16393;SDS011;8306;51.128;4.476;2022-11-18T13:42:26;4.73;;;4.23;;
16393;SDS011;8306;51.128;4.476;2022-11-18T13:44:54;5.30;;;3.90;;
16393;SDS011;8306;51.128;4.476;2022-11-18T13:50:00;3.83;;;2.37;;
16393;SDS011;8306;51.128;4.476;2022-11-18T13:55:00;6.53;;;3.00;;
16393;SDS011;8306;51.128;4.476;2022-11-18T13:57:26;5.10;;;3.03;;
16393;SDS011;8306;51.128;4.476;2022-11-18T13:59:53;5.00;;;3.43;;
16393;SDS011;8306;51.128;4.476;2022-11-18T14:02:19;4.10;;;2.70;;
16393;SDS011;8306;51.128;4.476;2022-11-18T14:04:53;5.27;;;3.53;;
16393;SDS011;8306;51.128;4.476;2022-11-18T14:07:28;4.33;;;2.73;;
16393;SDS011;8306;51.128;4.476;2022-11-18T14:09:57;5.10;;;3.93;;
16393;SDS011;8306;51.128;4.476;2022-11-18T14:12:37;45.53;;;32.00;;
16393;SDS011;8306;51.128;4.476;2022-11-18T14:17:48;14.73;;;13.30;;
16393;SDS011;8306;51.128;4.476;2022-11-18T14:20:14;35.17;;;25.03;;
16393;SDS011;8306;51.128;4.476;2022-11-18T14:22:41;21.43;;;16.63;;
16393;SDS011;8306;51.128;4.476;2022-11-18T14:27:49;11.37;;;10.00;;
16393;SDS011;8306;51.128;4.476;2022-11-18T14:30:28;12.80;;;11.70;;
16393;SDS011;8306;51.128;4.476;2022-11-18T14:35:38;62.40;;;42.03;;
16393;SDS011;8306;51.128;4.476;2022-11-18T14:38:20;56.27;;;40.07;;
16393;SDS011;8306;51.128;4.476;2022-11-18T14:40:58;74.87;;;52.07;;
16393;SDS011;8306;51.128;4.476;2022-11-18T14:43:23;44.53;;;37.90;;
16393;SDS011;8306;51.128;4.476;2022-11-18T14:45:53;17.40;;;15.90;;
16393;SDS011;8306;51.128;4.476;2022-11-18T14:48:19;7.87;;;7.27;;
16393;SDS011;8306;51.128;4.476;2022-11-18T14:50:45;5.03;;;4.53;;
16393;SDS011;8306;51.128;4.476;2022-11-18T14:53:14;4.93;;;3.60;;
16393;SDS011;8306;51.128;4.476;2022-11-18T14:55:41;4.00;;;3.30;;
16393;SDS011;8306;51.128;4.476;2022-11-18T14:58:10;5.83;;;3.60;;
16393;SDS011;8306;51.128;4.476;2022-11-18T15:00:34;5.53;;;4.00;;
16393;SDS011;8306;51.128;4.476;2022-11-18T15:03:00;3.67;;;3.20;;
16393;SDS011;8306;51.128;4.476;2022-11-18T15:05:27;3.70;;;3.40;;
16393;SDS011;8306;51.128;4.476;2022-11-18T15:07:53;8.20;;;5.87;;
16393;SDS011;8306;51.128;4.476;2022-11-18T15:10:20;4.47;;;3.83;;
16393;SDS011;8306;51.128;4.476;2022-11-18T15:12:46;6.53;;;5.93;;
16393;SDS011;8306;51.128;4.476;2022-11-18T15:15:13;6.80;;;4.90;;
16393;SDS011;8306;51.128;4.476;2022-11-18T15:17:39;5.20;;;4.57;;
16393;SDS011;8306;51.128;4.476;2022-11-18T15:20:06;11.70;;;10.63;;
16393;SDS011;8306;51.128;4.476;2022-11-18T15:22:32;9.33;;;8.47;;
16393;SDS011;8306;51.128;4.476;2022-11-18T15:24:59;9.03;;;8.23;;
16393;SDS011;8306;51.128;4.476;2022-11-18T15:27:25;17.30;;;15.80;;
16393;SDS011;8306;51.128;4.476;2022-11-18T15:29:52;12.77;;;11.70;;
16393;SDS011;8306;51.128;4.476;2022-11-18T15:32:18;10.47;;;9.47;;
16393;SDS011;8306;51.128;4.476;2022-11-18T15:34:45;10.83;;;9.90;;
16393;SDS011;8306;51.128;4.476;2022-11-18T15:37:11;15.47;;;14.20;;
16393;SDS011;8306;51.128;4.476;2022-11-18T15:39:38;15.07;;;11.27;;
16393;SDS011;8306;51.128;4.476;2022-11-18T15:42:04;12.23;;;11.23;;
16393;SDS011;8306;51.128;4.476;2022-11-18T15:44:30;21.60;;;19.30;;
16393;SDS011;8306;51.128;4.476;2022-11-18T15:46:57;46.50;;;32.30;;
16393;SDS011;8306;51.128;4.476;2022-11-18T15:49:23;31.77;;;27.20;;
16393;SDS011;8306;51.128;4.476;2022-11-18T15:51:50;27.63;;;25.13;;
16393;SDS011;8306;51.128;4.476;2022-11-18T15:54:16;21.77;;;20.17;;
16393;SDS011;8306;51.128;4.476;2022-11-18T15:56:43;18.47;;;17.07;;
16393;SDS011;8306;51.128;4.476;2022-11-18T15:59:10;18.37;;;16.87;;
16393;SDS011;8306;51.128;4.476;2022-11-18T16:01:39;16.10;;;14.80;;
16393;SDS011;8306;51.128;4.476;2022-11-18T16:04:05;15.97;;;14.70;;
16393;SDS011;8306;51.128;4.476;2022-11-18T16:06:31;19.63;;;18.20;;
16393;SDS011;8306;51.128;4.476;2022-11-18T16:08:58;15.47;;;13.97;;
16393;SDS011;8306;51.128;4.476;2022-11-18T16:11:24;16.93;;;15.67;;
16393;SDS011;8306;51.128;4.476;2022-11-18T16:14:10;15.13;;;13.97;;
16393;SDS011;8306;51.128;4.476;2022-11-18T16:16:36;11.73;;;10.73;;
16393;SDS011;8306;51.128;4.476;2022-11-18T16:19:03;11.67;;;10.77;;
16393;SDS011;8306;51.128;4.476;2022-11-18T16:21:30;10.33;;;9.43;;
16393;SDS011;8306;51.128;4.476;2022-11-18T16:23:55;10.37;;;9.57;;
16393;SDS011;8306;51.128;4.476;2022-11-18T16:26:21;10.47;;;9.57;;
16393;SDS011;8306;51.128;4.476;2022-11-18T16:28:48;9.30;;;8.43;;
16393;SDS011;8306;51.128;4.476;2022-11-18T16:31:14;9.40;;;8.53;;
16393;SDS011;8306;51.128;4.476;2022-11-18T16:34:04;9.30;;;8.50;;
16393;SDS011;8306;51.128;4.476;2022-11-18T16:36:26;9.37;;;8.57;;
16393;SDS011;8306;51.128;4.476;2022-11-18T16:38:52;21.37;;;18.33;;
16393;SDS011;8306;51.128;4.476;2022-11-18T16:41:19;42.47;;;28.90;;
16393;SDS011;8306;51.128;4.476;2022-11-18T16:43:58;25.20;;;19.53;;
16393;SDS011;8306;51.128;4.476;2022-11-18T16:46:30;28.43;;;23.10;;
16393;SDS011;8306;51.128;4.476;2022-11-18T16:48:56;34.67;;;24.77;;
16393;SDS011;8306;51.128;4.476;2022-11-18T16:51:27;17.17;;;15.47;;